Time;durP1;ratioP1;P1;durP2;ratioP2;P2;SDS_P1;SDS_P2;PMS_P1;PMS_P2;Temp;Humidity;BMP_temperature;BMP_pressure;BME280_temperature;BME280_humidity;BME280_pressure;Samples;Min_cycle;Max_cycle;Signal;HPM_P1;HPM_P2
2021/04/10 00:01:57;;;;;;;34.97;20.70;;;;;;;;;;4296565;33;20294;-56
2021/04/10 00:04:22;;;;;;;41.13;21.17;;;;;;;;;;4302692;33;20283;-57
2021/04/10 00:06:48;;;;;;;44.80;23.13;;;;;;;;;;4304356;33;20302;-58
2021/04/10 00:09:13;;;;;;;43.10;21.40;;;;;;;;;;4309764;33;20782;-59
2021/04/10 00:11:39;;;;;;;33.10;17.43;;;;;;;;;;4310152;33;20199;-56
2021/04/10 00:14:07;;;;;;;32.77;19.90;;;;;;;;;;4303180;33;20429;-59
2021/04/10 00:16:35;;;;;;;35.37;20.30;;;;;;;;;;4305571;33;20753;-58
2021/04/10 00:19:01;;;;;;;35.13;20.63;;;;;;;;;;4286189;33;20361;-58
2021/04/10 00:21:26;;;;;;;43.57;21.07;;;;;;;;;;4309361;33;20298;-58
2021/04/10 00:23:52;;;;;;;35.43;20.53;;;;;;;;;;4310073;33;20313;-59
2021/04/10 00:26:17;;;;;;;37.93;23.60;;;;;;;;;;4306910;33;20603;-57
2021/04/10 00:28:43;;;;;;;50.07;23.17;;;;;;;;;;4311494;33;20270;-58
2021/04/10 00:31:09;;;;;;;41.23;24.07;;;;;;;;;;4301922;33;20559;-57
2021/04/10 00:33:39;;;;;;;44.07;23.90;;;;;;;;;;4312137;33;20231;-57
2021/04/10 00:36:05;;;;;;;46.23;24.53;;;;;;;;;;4307918;33;20240;-58
2021/04/10 00:38:33;;;;;;;44.00;24.87;;;;;;;;;;4305666;33;20228;-58
2021/04/10 00:40:59;;;;;;;42.93;23.27;;;;;;;;;;4302176;33;20215;-57
2021/04/10 00:43:25;;;;;;;41.17;22.97;;;;;;;;;;4310253;33;20255;-58
2021/04/10 00:45:51;;;;;;;46.63;24.70;;;;;;;;;;4300272;33;20710;-57
2021/04/10 00:48:17;;;;;;;43.40;24.20;;;;;;;;;;4306160;33;20254;-57
2021/04/10 00:50:43;;;;;;;39.57;21.13;;;;;;;;;;4301461;33;20400;-57
2021/04/10 00:53:09;;;;;;;44.60;21.63;;;;;;;;;;4296392;33;20235;-57
2021/04/10 00:55:38;;;;;;;38.57;21.30;;;;;;;;;;4300498;33;20271;-57
2021/04/10 00:58:03;;;;;;;38.87;22.00;;;;;;;;;;4309618;33;20372;-58
2021/04/10 01:00:29;;;;;;;42.10;23.10;;;;;;;;;;4309473;33;20389;-58
2021/04/10 01:02:55;;;;;;;42.00;23.90;;;;;;;;;;4306022;33;20339;-58
2021/04/10 01:05:20;;;;;;;40.13;21.57;;;;;;;;;;4312719;33;20751;-58
2021/04/10 01:07:46;;;;;;;41.30;21.93;;;;;;;;;;4303657;33;20896;-58
2021/04/10 01:10:13;;;;;;;44.67;24.60;;;;;;;;;;4308274;33;20704;-58
2021/04/10 01:13:01;;;;;;;40.60;22.33;;;;;;;;;;4308848;33;20652;-59
2021/04/10 01:15:42;;;;;;;46.87;21.43;;;;;;;;;;4312186;33;20208;-58
2021/04/10 01:18:15;;;;;;;37.90;20.87;;;;;;;;;;4302133;33;20338;-58
2021/04/10 01:21:14;;;;;;;42.37;22.07;;;;;;;;;;4303736;33;20271;-58
2021/04/10 01:24:17;;;;;;;42.70;24.17;;;;;;;;;;4312913;33;20207;-58
2021/04/10 01:26:59;;;;;;;42.37;22.97;;;;;;;;;;4307745;33;20247;-58
2021/04/10 01:29:25;;;;;;;40.70;23.73;;;;;;;;;;4303138;33;20247;-59
2021/04/10 01:31:54;;;;;;;48.77;25.23;;;;;;;;;;4311646;33;20290;-58
2021/04/10 01:34:46;;;;;;;55.73;25.77;;;;;;;;;;4293365;33;20298;-58
2021/04/10 01:37:23;;;;;;;48.77;24.90;;;;;;;;;;4302529;33;20239;-57
2021/04/10 01:39:50;;;;;;;42.63;19.60;;;;;;;;;;4311112;33;20239;-57
2021/04/10 01:42:19;;;;;;;43.80;19.93;;;;;;;;;;4304514;33;20223;-57
2021/04/10 01:44:45;;;;;;;35.07;18.67;;;;;;;;;;4306132;33;20773;-59
2021/04/10 01:47:14;;;;;;;37.03;17.47;;;;;;;;;;4300670;33;20683;-60
2021/04/10 01:49:40;;;;;;;49.60;26.07;;;;;;;;;;4310736;33;20196;-60
2021/04/10 01:52:07;;;;;;;50.57;25.60;;;;;;;;;;4309868;33;20314;-61
2021/04/10 01:54:33;;;;;;;43.53;21.80;;;;;;;;;;4294199;33;20529;-57
2021/04/10 01:57:00;;;;;;;44.80;24.00;;;;;;;;;;4306233;33;20306;-57
2021/04/10 01:59:27;;;;;;;38.27;19.73;;;;;;;;;;4308936;33;20253;-58
2021/04/10 02:01:54;;;;;;;38.23;19.97;;;;;;;;;;4299400;33;20261;-59
2021/04/10 02:04:21;;;;;;;37.47;18.93;;;;;;;;;;4304840;33;20555;-59
2021/04/10 02:06:49;;;;;;;36.57;19.13;;;;;;;;;;4305595;33;20346;-59
2021/04/10 02:09:16;;;;;;;40.10;21.23;;;;;;;;;;4311229;33;20566;-59
2021/04/10 02:11:46;;;;;;;30.60;18.07;;;;;;;;;;4302456;33;20273;-60
2021/04/10 02:14:13;;;;;;;46.13;22.03;;;;;;;;;;4308729;33;20696;-59
2021/04/10 02:16:40;;;;;;;49.57;24.60;;;;;;;;;;4308344;33;20224;-59
2021/04/10 02:19:07;;;;;;;45.20;25.03;;;;;;;;;;4312980;33;20262;-59
2021/04/10 02:21:33;;;;;;;45.80;24.60;;;;;;;;;;4302442;33;20283;-59
2021/04/10 02:23:59;;;;;;;48.83;24.73;;;;;;;;;;4310067;33;20270;-60
2021/04/10 02:26:25;;;;;;;45.70;23.37;;;;;;;;;;4303149;33;20659;-59
2021/04/10 02:28:50;;;;;;;48.67;23.13;;;;;;;;;;4304857;33;20377;-59
2021/04/10 02:31:29;;;;;;;47.83;24.57;;;;;;;;;;4308474;33;20319;-60
2021/04/10 02:33:59;;;;;;;49.13;26.30;;;;;;;;;;4303144;33;20676;-59
2021/04/10 02:36:26;;;;;;;49.57;27.17;;;;;;;;;;4308107;33;20203;-60
2021/04/10 02:38:53;;;;;;;55.60;27.43;;;;;;;;;;4308990;33;20721;-60
2021/04/10 02:41:27;;;;;;;50.00;25.70;;;;;;;;;;4302524;33;20310;-59
2021/04/10 02:43:56;;;;;;;42.00;25.10;;;;;;;;;;4310947;33;20212;-59
2021/04/10 02:46:27;;;;;;;48.80;24.87;;;;;;;;;;4290874;33;20258;-58
2021/04/10 02:49:11;;;;;;;45.07;23.97;;;;;;;;;;4308675;33;20653;-58
2021/04/10 02:51:44;;;;;;;51.40;25.33;;;;;;;;;;4311725;33;20668;-59
2021/04/10 02:54:16;;;;;;;38.60;22.17;;;;;;;;;;4301988;33;20251;-58
2021/04/10 02:56:49;;;;;;;48.83;21.03;;;;;;;;;;4307253;33;20290;-58
2021/04/10 02:59:16;;;;;;;32.87;19.27;;;;;;;;;;4308243;33;20251;-59
2021/04/10 03:01:42;;;;;;;29.03;17.27;;;;;;;;;;4302445;33;20275;-60
2021/04/10 03:04:09;;;;;;;27.40;16.00;;;;;;;;;;4307903;33;20322;-59
2021/04/10 03:06:35;;;;;;;23.83;14.17;;;;;;;;;;4307384;33;20791;-59
2021/04/10 03:09:02;;;;;;;27.50;14.90;;;;;;;;;;4305976;33;20270;-60
2021/04/10 03:11:29;;;;;;;31.13;18.00;;;;;;;;;;4301170;33;20704;-59
2021/04/10 03:13:54;;;;;;;38.57;27.73;;;;;;;;;;4312236;33;20219;-60
2021/04/10 03:16:21;;;;;;;38.27;24.20;;;;;;;;;;4307251;33;20235;-58
2021/04/10 03:18:50;;;;;;;33.67;20.27;;;;;;;;;;4288356;33;20262;-58
2021/04/10 03:21:16;;;;;;;35.03;21.67;;;;;;;;;;4301942;33;20610;-58
2021/04/10 03:23:42;;;;;;;33.33;20.57;;;;;;;;;;4296530;33;20331;-58
2021/04/10 03:26:07;;;;;;;32.10;20.30;;;;;;;;;;4310671;33;20637;-59
2021/04/10 03:28:34;;;;;;;47.57;27.73;;;;;;;;;;4299382;33;20411;-58
2021/04/10 03:31:02;;;;;;;51.53;25.93;;;;;;;;;;4306663;33;20519;-59
2021/04/10 03:33:31;;;;;;;47.30;22.93;;;;;;;;;;4303990;33;20349;-58
2021/04/10 03:35:57;;;;;;;32.30;20.23;;;;;;;;;;4308138;33;20263;-58
2021/04/10 03:38:23;;;;;;;35.97;21.23;;;;;;;;;;4296116;33;20855;-58
2021/04/10 03:40:49;;;;;;;35.77;20.30;;;;;;;;;;4306825;33;20291;-58
2021/04/10 03:43:14;;;;;;;33.37;19.10;;;;;;;;;;4297671;33;20323;-59
2021/04/10 03:45:40;;;;;;;37.57;18.53;;;;;;;;;;4311369;33;20747;-59
2021/04/10 03:48:06;;;;;;;29.53;18.67;;;;;;;;;;4302234;33;20477;-58
2021/04/10 03:50:31;;;;;;;32.57;17.77;;;;;;;;;;4309181;33;20613;-59
2021/04/10 03:52:57;;;;;;;37.80;21.03;;;;;;;;;;4307116;33;20248;-59
2021/04/10 03:55:22;;;;;;;39.27;21.80;;;;;;;;;;4303768;33;20393;-58
2021/04/10 03:57:48;;;;;;;38.97;20.80;;;;;;;;;;4291791;33;20251;-59
2021/04/10 04:00:14;;;;;;;43.97;22.57;;;;;;;;;;4312957;33;20297;-60
2021/04/10 04:02:40;;;;;;;52.83;25.83;;;;;;;;;;4307899;33;20298;-59
2021/04/10 04:05:06;;;;;;;67.77;32.97;;;;;;;;;;4295062;33;20310;-59
2021/04/10 04:07:32;;;;;;;93.80;40.30;;;;;;;;;;4304281;33;20263;-59
2021/04/10 04:09:57;;;;;;;105.10;40.73;;;;;;;;;;4301770;33;20716;-59
2021/04/10 04:12:22;;;;;;;95.67;41.13;;;;;;;;;;4309946;33;20312;-58
2021/04/10 04:14:48;;;;;;;69.80;30.77;;;;;;;;;;4290564;33;20774;-59
2021/04/10 04:17:14;;;;;;;58.03;26.37;;;;;;;;;;4307501;33;20246;-60
2021/04/10 04:19:39;;;;;;;49.80;26.10;;;;;;;;;;4299248;33;20345;-59
2021/04/10 04:22:05;;;;;;;73.90;28.60;;;;;;;;;;4311563;33;20348;-59
2021/04/10 04:24:31;;;;;;;51.70;27.97;;;;;;;;;;4305145;33;20288;-59
2021/04/10 04:26:57;;;;;;;52.13;28.27;;;;;;;;;;4306645;33;20196;-59
2021/04/10 04:29:23;;;;;;;51.33;25.73;;;;;;;;;;4313834;33;20364;-59
2021/04/10 04:31:49;;;;;;;39.90;23.77;;;;;;;;;;4303574;33;20251;-59
2021/04/10 04:34:14;;;;;;;42.80;23.50;;;;;;;;;;4316623;33;20266;-59
2021/04/10 04:36:40;;;;;;;40.07;22.93;;;;;;;;;;4310816;33;20237;-59
2021/04/10 04:39:05;;;;;;;55.40;27.60;;;;;;;;;;4310693;33;20286;-58
2021/04/10 04:41:32;;;;;;;61.73;32.57;;;;;;;;;;4305522;33;20287;-59
2021/04/10 04:43:57;;;;;;;56.10;29.53;;;;;;;;;;4314224;33;20245;-60
2021/04/10 04:46:23;;;;;;;50.53;25.80;;;;;;;;;;4306674;33;20712;-60
2021/04/10 04:48:48;;;;;;;48.60;23.80;;;;;;;;;;4315787;33;20752;-58
2021/04/10 04:51:17;;;;;;;47.33;25.20;;;;;;;;;;4307244;33;20347;-60
2021/04/10 04:53:43;;;;;;;42.80;24.03;;;;;;;;;;4313726;33;20317;-60
2021/04/10 04:56:08;;;;;;;48.40;26.87;;;;;;;;;;4303795;33;20232;-58
2021/04/10 04:58:34;;;;;;;46.73;26.30;;;;;;;;;;4305337;33;20300;-57
2021/04/10 05:01:00;;;;;;;44.90;27.50;;;;;;;;;;4310221;33;20252;-57
2021/04/10 05:03:25;;;;;;;47.87;29.27;;;;;;;;;;4310395;33;20227;-57
2021/04/10 05:05:51;;;;;;;50.77;31.00;;;;;;;;;;4313733;33;20754;-57
2021/04/10 05:08:16;;;;;;;66.20;38.43;;;;;;;;;;4305422;33;20219;-57
2021/04/10 05:10:42;;;;;;;172.53;85.07;;;;;;;;;;4314612;33;20365;-58
2021/04/10 05:13:07;;;;;;;155.00;75.37;;;;;;;;;;4311322;33;20256;-58
2021/04/10 05:15:33;;;;;;;154.53;77.13;;;;;;;;;;4305058;33;20415;-58
2021/04/10 05:17:58;;;;;;;121.27;69.57;;;;;;;;;;4311643;33;20403;-57
2021/04/10 05:20:24;;;;;;;129.67;66.17;;;;;;;;;;4312467;33;20329;-58
2021/04/10 05:22:54;;;;;;;126.77;63.93;;;;;;;;;;4308372;33;20223;-58
2021/04/10 05:25:19;;;;;;;108.03;58.90;;;;;;;;;;4310827;33;20224;-58
2021/04/10 05:27:47;;;;;;;102.13;56.03;;;;;;;;;;4310314;33;20254;-58
2021/04/10 05:30:13;;;;;;;92.50;52.37;;;;;;;;;;4291626;33;20340;-56
2021/04/10 05:32:38;;;;;;;99.57;53.40;;;;;;;;;;4308857;33;20589;-57
2021/04/10 05:35:04;;;;;;;86.03;48.73;;;;;;;;;;4311817;33;20381;-58
2021/04/10 05:37:30;;;;;;;84.33;46.20;;;;;;;;;;4315872;33;20223;-58
2021/04/10 05:39:56;;;;;;;80.80;40.77;;;;;;;;;;4313509;33;20312;-59
2021/04/10 05:42:21;;;;;;;73.17;38.93;;;;;;;;;;4305075;33;20232;-57
2021/04/10 05:44:47;;;;;;;78.47;38.93;;;;;;;;;;4308983;33;20272;-58
2021/04/10 05:47:12;;;;;;;80.37;37.73;;;;;;;;;;4310782;33;20298;-57
2021/04/10 05:49:38;;;;;;;65.47;33.43;;;;;;;;;;4303312;33;20294;-58
2021/04/10 05:52:04;;;;;;;69.57;30.90;;;;;;;;;;4311883;33;20274;-57
2021/04/10 05:54:29;;;;;;;55.90;27.33;;;;;;;;;;4289569;33;20310;-59
2021/04/10 05:56:55;;;;;;;62.90;27.37;;;;;;;;;;4310301;33;20798;-59
2021/04/10 05:59:20;;;;;;;40.90;21.67;;;;;;;;;;4314950;33;20345;-58
2021/04/10 06:01:45;;;;;;;34.20;19.37;;;;;;;;;;4303112;33;20312;-58
2021/04/10 06:04:11;;;;;;;38.27;19.77;;;;;;;;;;4311842;33;20275;-55
2021/04/10 06:06:37;;;;;;;34.97;19.53;;;;;;;;;;4305872;33;20258;-55
2021/04/10 06:09:02;;;;;;;38.43;20.93;;;;;;;;;;4314867;33;20311;-55
2021/04/10 06:11:28;;;;;;;35.43;17.77;;;;;;;;;;4303822;33;20327;-55
2021/04/10 06:13:53;;;;;;;35.97;18.53;;;;;;;;;;4311878;33;20361;-54
2021/04/10 06:16:19;;;;;;;41.13;19.17;;;;;;;;;;4311225;33;20578;-54
2021/04/10 06:18:45;;;;;;;31.97;18.77;;;;;;;;;;4309982;33;20267;-55
2021/04/10 06:21:10;;;;;;;32.40;16.63;;;;;;;;;;4305297;33;20668;-55
2021/04/10 06:23:36;;;;;;;30.87;17.37;;;;;;;;;;4308161;33;20216;-56
2021/04/10 06:26:02;;;;;;;31.87;17.27;;;;;;;;;;4312322;33;20204;-55
2021/04/10 06:28:27;;;;;;;32.87;16.30;;;;;;;;;;4306868;33;20748;-57
2021/04/10 06:30:53;;;;;;;29.63;16.27;;;;;;;;;;4307143;33;20346;-55
2021/04/10 06:33:23;;;;;;;34.00;15.80;;;;;;;;;;4304095;33;20220;-55
2021/04/10 06:35:49;;;;;;;31.20;16.57;;;;;;;;;;4300142;33;20265;-55
2021/04/10 06:38:15;;;;;;;42.80;17.23;;;;;;;;;;4303125;33;20215;-56
2021/04/10 06:40:41;;;;;;;38.17;18.27;;;;;;;;;;4308517;33;20300;-56
2021/04/10 06:43:06;;;;;;;34.77;19.83;;;;;;;;;;4308018;33;20239;-56
2021/04/10 06:45:32;;;;;;;30.67;16.20;;;;;;;;;;4302055;33;20318;-56
2021/04/10 06:48:02;;;;;;;24.57;15.17;;;;;;;;;;4312003;33;20539;-57
2021/04/10 06:50:28;;;;;;;17.10;10.13;;;;;;;;;;4309465;33;20234;-57
2021/04/10 06:52:56;;;;;;;16.10;9.63;;;;;;;;;;4292693;33;20365;-55
2021/04/10 06:55:23;;;;;;;16.90;8.70;;;;;;;;;;4304009;33;20226;-56
2021/04/10 06:57:57;;;;;;;10.97;6.57;;;;;;;;;;4305543;33;20593;-57
2021/04/10 07:00:24;;;;;;;15.83;6.80;;;;;;;;;;4313201;33;20347;-56
2021/04/10 07:02:50;;;;;;;16.17;10.00;;;;;;;;;;4293263;33;20254;-58
2021/04/10 07:05:16;;;;;;;16.73;10.03;;;;;;;;;;4309287;33;20215;-57
2021/04/10 07:07:43;;;;;;;17.50;9.07;;;;;;;;;;4301476;33;20236;-57
2021/04/10 07:10:11;;;;;;;22.87;10.93;;;;;;;;;;4311072;33;20238;-57
2021/04/10 07:12:37;;;;;;;19.83;9.80;;;;;;;;;;4294859;33;20224;-58
2021/04/10 07:15:09;;;;;;;19.47;10.23;;;;;;;;;;4307912;33;20332;-57
2021/04/10 07:17:35;;;;;;;20.53;11.40;;;;;;;;;;4305189;33;20251;-60
2021/04/10 07:20:26;;;;;;;28.13;12.73;;;;;;;;;;4311008;33;20287;-59
2021/04/10 07:23:02;;;;;;;24.63;12.73;;;;;;;;;;4305926;33;20250;-60
2021/04/10 07:25:29;;;;;;;18.20;8.70;;;;;;;;;;4303148;33;20253;-60
2021/04/10 07:28:15;;;;;;;18.57;10.67;;;;;;;;;;4310142;33;20800;-57
2021/04/10 07:31:05;;;;;;;15.33;9.30;;;;;;;;;;4305369;33;20204;-58
2021/04/10 07:33:36;;;;;;;16.67;9.37;;;;;;;;;;4302764;33;20650;-59
2021/04/10 07:36:04;;;;;;;18.80;9.43;;;;;;;;;;4306566;33;20270;-58
2021/04/10 07:38:29;;;;;;;16.47;9.93;;;;;;;;;;4298286;33;20286;-56
2021/04/10 07:40:56;;;;;;;15.17;9.83;;;;;;;;;;4305307;33;20310;-59
2021/04/10 07:43:23;;;;;;;15.50;8.47;;;;;;;;;;4299340;33;20326;-58
2021/04/10 07:45:48;;;;;;;14.37;7.50;;;;;;;;;;4311015;33;20243;-57
2021/04/10 07:48:17;;;;;;;12.60;6.43;;;;;;;;;;4302726;33;20240;-57
2021/04/10 07:50:43;;;;;;;10.73;7.00;;;;;;;;;;4307407;33;20294;-57
2021/04/10 07:53:19;;;;;;;18.00;6.07;;;;;;;;;;4306646;33;20255;-58
2021/04/10 07:55:44;;;;;;;9.17;5.77;;;;;;;;;;4301533;33;20282;-58
2021/04/10 07:58:23;;;;;;;9.23;5.20;;;;;;;;;;4303608;33;20282;-60
2021/04/10 08:00:50;;;;;;;8.20;4.87;;;;;;;;;;4306884;33;20326;-59
2021/04/10 08:03:23;;;;;;;13.10;6.63;;;;;;;;;;4295356;33;20274;-58
2021/04/10 08:05:48;;;;;;;15.73;5.50;;;;;;;;;;4310261;33;20267;-60
2021/04/10 08:08:19;;;;;;;9.70;5.47;;;;;;;;;;4309278;33;20282;-57
2021/04/10 08:10:46;;;;;;;12.43;5.80;;;;;;;;;;4305312;33;20220;-57
2021/04/10 08:13:12;;;;;;;13.03;5.33;;;;;;;;;;4308260;33;20219;-55
2021/04/10 08:15:38;;;;;;;11.03;5.20;;;;;;;;;;4301388;33;20212;-56
2021/04/10 08:18:21;;;;;;;12.47;7.00;;;;;;;;;;4308063;33;20276;-56
2021/04/10 08:20:50;;;;;;;12.23;6.90;;;;;;;;;;4313119;33;20298;-57
2021/04/10 08:23:17;;;;;;;10.27;5.97;;;;;;;;;;4281584;33;20603;-57
2021/04/10 08:25:43;;;;;;;8.87;5.20;;;;;;;;;;4301036;33;20554;-58
2021/04/10 08:28:09;;;;;;;11.57;6.07;;;;;;;;;;4312810;33;20246;-58
2021/04/10 08:30:35;;;;;;;7.50;5.03;;;;;;;;;;4307843;33;20287;-57
2021/04/10 08:33:00;;;;;;;10.83;5.80;;;;;;;;;;4306961;33;20417;-58
2021/04/10 08:35:26;;;;;;;44.67;27.93;;;;;;;;;;4309309;33;20324;-57
2021/04/10 08:37:57;;;;;;;16.27;7.63;;;;;;;;;;4301855;33;20243;-56
2021/04/10 08:40:24;;;;;;;9.90;6.43;;;;;;;;;;4311335;33;20453;-57
2021/04/10 08:42:50;;;;;;;15.60;6.80;;;;;;;;;;4297673;33;20676;-56
2021/04/10 08:45:16;;;;;;;11.13;7.53;;;;;;;;;;4310383;33;20368;-57
2021/04/10 08:47:43;;;;;;;13.77;8.47;;;;;;;;;;4290997;33;20519;-58
2021/04/10 08:50:12;;;;;;;13.03;8.80;;;;;;;;;;4308550;33;20713;-57
2021/04/10 08:52:38;;;;;;;12.67;6.70;;;;;;;;;;4301189;33;20227;-57
2021/04/10 08:55:10;;;;;;;10.80;6.33;;;;;;;;;;4305197;33;20361;-58
2021/04/10 08:57:37;;;;;;;26.27;14.87;;;;;;;;;;4305551;33;20269;-56
2021/04/10 09:00:16;;;;;;;12.07;7.30;;;;;;;;;;4304349;33;20303;-57
2021/04/10 09:02:50;;;;;;;13.67;6.93;;;;;;;;;;4304260;33;20252;-57
2021/04/10 09:05:16;;;;;;;11.40;6.90;;;;;;;;;;4303407;33;20211;-57
2021/04/10 09:08:00;;;;;;;9.10;6.30;;;;;;;;;;4292148;33;20236;-56
2021/04/10 09:10:28;;;;;;;12.03;7.23;;;;;;;;;;4276946;33;20213;-55
2021/04/10 09:13:23;;;;;;;19.87;10.53;;;;;;;;;;4294667;33;20640;-57
2021/04/10 09:15:49;;;;;;;17.73;8.67;;;;;;;;;;4258385;33;20258;-57
2021/04/10 09:18:15;;;;;;;14.30;6.80;;;;;;;;;;4276873;33;20283;-57
2021/04/10 09:23:28;;;;;;;9.53;5.83;;;;;;;;;;4277172;33;20259;-57
2021/04/10 09:26:15;;;;;;;8.50;5.07;;;;;;;;;;4284417;33;20311;-56
2021/04/10 09:28:56;;;;;;;7.93;4.47;;;;;;;;;;4288699;33;20242;-57
2021/04/10 09:31:42;;;;;;;12.33;7.03;;;;;;;;;;4274038;33;20228;-55
2021/04/10 09:34:43;;;;;;;10.07;5.33;;;;;;;;;;4278705;33;20221;-56
2021/04/10 09:37:32;;;;;;;30.53;17.47;;;;;;;;;;4276998;33;20592;-57
2021/04/10 09:40:00;;;;;;;10.37;5.47;;;;;;;;;;4270234;33;20236;-56
2021/04/10 09:42:35;;;;;;;9.53;5.37;;;;;;;;;;4285812;33;20690;-54
2021/04/10 09:45:23;;;;;;;7.00;4.00;;;;;;;;;;4290790;33;20685;-57
2021/04/10 09:48:07;;;;;;;10.23;6.57;;;;;;;;;;4285502;33;20207;-55
2021/04/10 09:50:40;;;;;;;8.67;5.90;;;;;;;;;;4280800;33;20209;-57
2021/04/10 09:53:08;;;;;;;7.17;4.83;;;;;;;;;;4290558;33;20713;-57
2021/04/10 09:55:37;;;;;;;6.77;3.67;;;;;;;;;;4276590;33;20591;-55
2021/04/10 09:58:06;;;;;;;7.63;3.70;;;;;;;;;;4278516;33;20212;-55
2021/04/10 10:00:41;;;;;;;7.43;4.37;;;;;;;;;;4283553;33;20212;-57
2021/04/10 10:03:08;;;;;;;11.43;6.43;;;;;;;;;;4272560;33;20323;-56
2021/04/10 10:05:35;;;;;;;5.63;3.70;;;;;;;;;;4275233;33;20288;-54
2021/04/10 10:08:02;;;;;;;6.77;4.30;;;;;;;;;;4311037;33;20235;-55
2021/04/10 10:10:36;;;;;;;15.27;8.07;;;;;;;;;;4300235;33;20275;-55
2021/04/10 10:13:03;;;;;;;9.37;3.40;;;;;;;;;;4303626;33;20333;-56
2021/04/10 10:15:30;;;;;;;12.20;6.47;;;;;;;;;;4303735;33;20250;-56
2021/04/10 10:17:55;;;;;;;81.63;34.10;;;;;;;;;;4308319;33;20763;-56
2021/04/10 10:20:21;;;;;;;15.03;7.83;;;;;;;;;;4304037;33;20271;-56
2021/04/10 10:22:47;;;;;;;9.50;4.77;;;;;;;;;;4305321;33;20760;-55
2021/04/10 10:25:13;;;;;;;129.97;46.17;;;;;;;;;;4304272;33;20362;-56
2021/04/10 10:27:46;;;;;;;75.13;24.60;;;;;;;;;;4312188;33;20245;-54
2021/04/10 10:30:19;;;;;;;15.13;5.43;;;;;;;;;;4313327;33;20728;-54
2021/04/10 10:32:46;;;;;;;16.67;6.50;;;;;;;;;;4312335;33;20257;-55
2021/04/10 10:35:17;;;;;;;16.10;8.60;;;;;;;;;;4304434;33;20355;-55
2021/04/10 10:37:54;;;;;;;13.27;4.33;;;;;;;;;;4310225;33;20650;-56
2021/04/10 10:40:26;;;;;;;37.33;25.60;;;;;;;;;;4304859;33;20477;-56
2021/04/10 10:43:06;;;;;;;9.80;5.67;;;;;;;;;;4308300;33;20286;-55
2021/04/10 10:45:51;;;;;;;11.73;6.33;;;;;;;;;;4314413;33;20410;-55
2021/04/10 10:48:30;;;;;;;6.27;3.23;;;;;;;;;;4302799;33;20298;-55
2021/04/10 10:50:58;;;;;;;5.90;4.10;;;;;;;;;;4304807;33;20689;-54
2021/04/10 10:53:35;;;;;;;5.57;3.20;;;;;;;;;;4302403;33;20220;-54
2021/04/10 10:56:06;;;;;;;4.20;2.77;;;;;;;;;;4311618;33;20196;-54
2021/04/10 10:58:40;;;;;;;8.10;3.20;;;;;;;;;;4311193;33;20541;-55
2021/04/10 11:01:20;;;;;;;4.73;2.60;;;;;;;;;;4310117;33;20258;-53
2021/04/10 11:03:55;;;;;;;5.77;2.97;;;;;;;;;;4303905;33;20746;-54
2021/04/10 11:06:23;;;;;;;8.67;3.40;;;;;;;;;;4311898;33;20243;-55
2021/04/10 11:08:49;;;;;;;4.20;2.43;;;;;;;;;;4306395;33;20227;-56
2021/04/10 11:11:17;;;;;;;6.13;3.00;;;;;;;;;;4308017;33;20334;-54
2021/04/10 11:13:48;;;;;;;4.60;2.70;;;;;;;;;;4311873;33;20231;-54
2021/04/10 11:16:16;;;;;;;8.53;3.00;;;;;;;;;;4310631;33;21607;-58
2021/04/10 11:18:42;;;;;;;7.10;2.93;;;;;;;;;;4304663;33;20297;-58
2021/04/10 11:21:16;;;;;;;9.10;3.20;;;;;;;;;;4309381;33;20235;-59
2021/04/10 11:24:01;;;;;;;7.60;2.87;;;;;;;;;;4304808;33;20257;-56
2021/04/10 11:26:32;;;;;;;5.43;2.93;;;;;;;;;;4313187;33;20602;-59
2021/04/10 11:29:26;;;;;;;10.87;3.63;;;;;;;;;;4305135;33;20650;-58
2021/04/10 11:32:11;;;;;;;4.60;2.93;;;;;;;;;;4308076;33;20223;-59
2021/04/10 11:34:47;;;;;;;5.77;3.10;;;;;;;;;;4309537;33;20382;-60
2021/04/10 11:37:14;;;;;;;4.07;2.87;;;;;;;;;;4307364;33;20246;-58
2021/04/10 11:39:51;;;;;;;6.60;2.60;;;;;;;;;;4304698;33;20294;-57
2021/04/10 11:42:34;;;;;;;5.57;2.60;;;;;;;;;;4312003;33;20223;-57
2021/04/10 11:45:05;;;;;;;5.93;3.43;;;;;;;;;;4308031;33;20271;-57
2021/04/10 11:47:32;;;;;;;5.13;2.87;;;;;;;;;;4303437;33;20317;-57
2021/04/10 11:50:05;;;;;;;5.30;2.77;;;;;;;;;;4310798;33;20273;-58
2021/04/10 11:52:30;;;;;;;11.30;3.67;;;;;;;;;;4303554;33;20215;-56
2021/04/10 11:55:14;;;;;;;5.20;2.70;;;;;;;;;;4305381;33;20732;-55
2021/04/10 11:57:41;;;;;;;4.93;2.20;;;;;;;;;;4308221;33;20245;-54
2021/04/10 12:00:22;;;;;;;5.17;2.57;;;;;;;;;;4311205;33;20235;-55
2021/04/10 12:02:48;;;;;;;4.43;2.40;;;;;;;;;;4310466;33;20223;-53
2021/04/10 12:05:18;;;;;;;15.60;2.97;;;;;;;;;;4306814;33;20364;-54
2021/04/10 12:08:02;;;;;;;5.77;3.10;;;;;;;;;;4303307;33;20302;-53
2021/04/10 12:10:27;;;;;;;5.60;2.97;;;;;;;;;;4303997;33;20195;-52
2021/04/10 12:12:53;;;;;;;3.43;2.17;;;;;;;;;;4304051;33;20341;-53
2021/04/10 12:15:33;;;;;;;11.13;2.73;;;;;;;;;;4310181;33;20752;-54
2021/04/10 12:18:00;;;;;;;6.90;2.43;;;;;;;;;;4301367;33;20326;-54
2021/04/10 12:20:25;;;;;;;7.33;3.33;;;;;;;;;;4291710;33;20290;-54
2021/04/10 12:22:51;;;;;;;4.47;2.80;;;;;;;;;;4304905;33;20252;-54
2021/04/10 12:25:17;;;;;;;8.33;3.03;;;;;;;;;;4308685;33;20251;-55
2021/04/10 12:27:43;;;;;;;4.33;2.90;;;;;;;;;;4310454;33;20302;-54
2021/04/10 12:30:09;;;;;;;3.43;2.37;;;;;;;;;;4310293;33;20312;-54
2021/04/10 12:32:35;;;;;;;5.43;2.57;;;;;;;;;;4303498;33;20249;-55
2021/04/10 12:35:01;;;;;;;6.70;2.90;;;;;;;;;;4309649;33;20370;-56
2021/04/10 12:37:27;;;;;;;3.95;2.53;;;;;;;;;;4312858;33;20282;-55
2021/04/10 12:39:52;;;;;;;5.27;3.07;;;;;;;;;;4311759;33;20318;-55
2021/04/10 12:42:18;;;;;;;5.80;2.70;;;;;;;;;;4308951;33;20311;-54
2021/04/10 12:44:43;;;;;;;7.47;3.47;;;;;;;;;;4298208;33;20311;-55
2021/04/10 12:47:19;;;;;;;7.68;2.50;;;;;;;;;;4303457;33;20224;-55
2021/04/10 12:49:45;;;;;;;7.87;2.57;;;;;;;;;;4309731;33;20618;-55
2021/04/10 12:52:11;;;;;;;7.67;2.43;;;;;;;;;;4313238;33;20244;-55
2021/04/10 12:54:37;;;;;;;4.00;2.50;;;;;;;;;;4309726;33;20795;-55
2021/04/10 12:57:07;;;;;;;4.27;2.63;;;;;;;;;;4306057;33;20457;-55
2021/04/10 12:59:33;;;;;;;4.40;2.70;;;;;;;;;;4312418;33;20245;-55
2021/04/10 13:01:59;;;;;;;7.57;2.23;;;;;;;;;;4301744;33;20286;-55
2021/04/10 13:04:25;;;;;;;9.87;2.53;;;;;;;;;;4310584;33;20313;-55
2021/04/10 13:06:51;;;;;;;4.90;2.85;;;;;;;;;;4305578;33;20236;-55
2021/04/10 13:09:17;;;;;;;3.08;1.83;;;;;;;;;;4310961;33;20346;-55
2021/04/10 13:11:42;;;;;;;4.70;2.42;;;;;;;;;;4309526;33;20211;-54
2021/04/10 13:14:08;;;;;;;5.35;2.78;;;;;;;;;;4312184;33;20305;-54
2021/04/10 13:16:33;;;;;;;3.80;2.47;;;;;;;;;;4309184;33;20349;-55
2021/04/10 13:19:00;;;;;;;11.77;3.78;;;;;;;;;;4303527;33;20607;-55
2021/04/10 13:21:25;;;;;;;8.40;3.00;;;;;;;;;;4311595;33;20215;-55
2021/04/10 13:23:51;;;;;;;6.78;2.50;;;;;;;;;;4312981;33;20350;-57
2021/04/10 13:26:17;;;;;;;6.10;2.50;;;;;;;;;;4302200;33;20311;-55
2021/04/10 13:28:42;;;;;;;6.25;3.05;;;;;;;;;;4313641;33;20281;-56
2021/04/10 13:31:08;;;;;;;6.72;2.80;;;;;;;;;;4291993;33;20280;-55
2021/04/10 13:33:34;;;;;;;5.28;2.45;;;;;;;;;;4311277;33;20243;-55
2021/04/10 13:35:59;;;;;;;6.30;2.87;;;;;;;;;;4302048;33;20262;-55
2021/04/10 13:38:25;;;;;;;8.85;2.45;;;;;;;;;;4313838;33;20219;-55
2021/04/10 13:40:51;;;;;;;4.37;2.75;;;;;;;;;;4294011;33;20658;-55
2021/04/10 13:43:16;;;;;;;5.95;2.70;;;;;;;;;;4303549;33;20315;-55
2021/04/10 13:45:42;;;;;;;5.25;2.67;;;;;;;;;;4313911;33;20413;-56
2021/04/10 13:48:07;;;;;;;8.55;3.00;;;;;;;;;;4314388;33;20693;-56
2021/04/10 13:50:33;;;;;;;7.47;4.10;;;;;;;;;;4302022;33;20309;-57
2021/04/10 13:52:58;;;;;;;9.75;4.43;;;;;;;;;;4306874;33;20291;-56
2021/04/10 13:55:24;;;;;;;10.80;4.95;;;;;;;;;;4300700;33;20350;-56
2021/04/10 13:57:49;;;;;;;12.05;7.10;;;;;;;;;;4310752;33;20273;-55
2021/04/10 14:00:15;;;;;;;3.83;2.50;;;;;;;;;;4304266;33;20309;-55
2021/04/10 14:02:41;;;;;;;5.47;3.75;;;;;;;;;;4308518;33;20215;-55
2021/04/10 14:05:09;;;;;;;4.57;2.53;;;;;;;;;;4305071;33;20458;-56
2021/04/10 14:07:35;;;;;;;21.02;10.77;;;;;;;;;;4312056;33;20290;-55
2021/04/10 14:10:01;;;;;;;40.63;22.77;;;;;;;;;;4312115;33;20291;-56
2021/04/10 14:12:27;;;;;;;5.22;3.15;;;;;;;;;;4304690;33;20647;-55
2021/04/10 14:14:53;;;;;;;5.70;3.45;;;;;;;;;;4305639;33;20645;-56
2021/04/10 14:17:19;;;;;;;6.20;3.15;;;;;;;;;;4307932;33;20231;-54
2021/04/10 14:19:44;;;;;;;6.65;2.78;;;;;;;;;;4311822;33;20369;-56
2021/04/10 14:22:10;;;;;;;5.68;3.78;;;;;;;;;;4303160;33;20241;-55
2021/04/10 14:24:36;;;;;;;11.05;5.53;;;;;;;;;;4308907;33;20287;-56
2021/04/10 14:27:02;;;;;;;8.43;4.45;;;;;;;;;;4308215;33;20253;-55
2021/04/10 14:29:28;;;;;;;5.57;3.50;;;;;;;;;;4314038;33;20311;-56
2021/04/10 14:31:53;;;;;;;5.10;2.70;;;;;;;;;;4301951;33;20265;-55
2021/04/10 14:34:19;;;;;;;6.45;3.35;;;;;;;;;;4310259;33;20381;-56
2021/04/10 14:36:44;;;;;;;4.93;3.50;;;;;;;;;;4305631;33;20233;-56
2021/04/10 14:39:10;;;;;;;12.13;3.30;;;;;;;;;;4304234;33;20752;-55